sensor_id;sensor_type;location;lat;lon;timestamp;pressure;altitude;pressure_sealevel;temperature
41593;BMP180;28026;48.562;14.440;2024-03-23T00:55:59;93167.00;;;18.60
41593;BMP180;28026;48.562;14.440;2024-03-23T00:58:30;93166.00;;;18.60
41593;BMP180;28026;48.562;14.440;2024-03-23T01:01:01;93153.00;;;18.60
41593;BMP180;28026;48.562;14.440;2024-03-23T01:03:34;93156.00;;;18.60
41593;BMP180;28026;48.562;14.440;2024-03-23T01:06:05;93154.00;;;18.50
41593;BMP180;28026;48.562;14.440;2024-03-23T01:08:35;93153.00;;;18.50
41593;BMP180;28026;48.562;14.440;2024-03-23T01:11:06;93153.00;;;18.50
41593;BMP180;28026;48.562;14.440;2024-03-23T01:13:37;93143.00;;;18.50
41593;BMP180;28026;48.562;14.440;2024-03-23T01:16:08;93146.00;;;18.50
41593;BMP180;28026;48.562;14.440;2024-03-23T01:18:39;93147.00;;;18.50
41593;BMP180;28026;48.562;14.440;2024-03-23T01:21:10;93143.00;;;18.50
41593;BMP180;28026;48.562;14.440;2024-03-23T01:23:40;93154.00;;;18.50
41593;BMP180;28026;48.562;14.440;2024-03-23T01:26:12;93146.00;;;18.50
41593;BMP180;28026;48.562;14.440;2024-03-23T01:28:44;93156.00;;;18.50
41593;BMP180;28026;48.562;14.440;2024-03-23T01:31:14;93151.00;;;18.50
41593;BMP180;28026;48.562;14.440;2024-03-23T01:33:46;93133.00;;;18.50
41593;BMP180;28026;48.562;14.440;2024-03-23T01:36:17;93139.00;;;18.50
41593;BMP180;28026;48.562;14.440;2024-03-23T01:38:48;93130.00;;;18.50
41593;BMP180;28026;48.562;14.440;2024-03-23T01:41:19;93120.00;;;18.50
41593;BMP180;28026;48.562;14.440;2024-03-23T01:43:50;93130.00;;;18.50
41593;BMP180;28026;48.562;14.440;2024-03-23T01:46:21;93125.00;;;18.50
41593;BMP180;28026;48.562;14.440;2024-03-23T01:48:52;93120.00;;;18.40
41593;BMP180;28026;48.562;14.440;2024-03-23T01:51:23;93120.00;;;18.40
41593;BMP180;28026;48.562;14.440;2024-03-23T01:53:54;93111.00;;;18.30
41593;BMP180;28026;48.562;14.440;2024-03-23T01:56:26;93103.00;;;18.30
41593;BMP180;28026;48.562;14.440;2024-03-23T01:58:57;93105.00;;;18.30
41593;BMP180;28026;48.562;14.440;2024-03-23T02:01:29;93098.00;;;18.30
41593;BMP180;28026;48.562;14.440;2024-03-23T02:04:00;93096.00;;;18.20
41593;BMP180;28026;48.562;14.440;2024-03-23T02:06:31;93102.00;;;18.20
41593;BMP180;28026;48.562;14.440;2024-03-23T02:09:02;93089.00;;;18.10
41593;BMP180;28026;48.562;14.440;2024-03-23T02:11:34;93092.00;;;18.10
41593;BMP180;28026;48.562;14.440;2024-03-23T02:14:05;93083.00;;;18.00
41593;BMP180;28026;48.562;14.440;2024-03-23T02:16:35;93086.00;;;17.90
41593;BMP180;28026;48.562;14.440;2024-03-23T02:19:06;93082.00;;;17.90
41593;BMP180;28026;48.562;14.440;2024-03-23T02:21:37;93070.00;;;17.80
41593;BMP180;28026;48.562;14.440;2024-03-23T02:24:08;93067.00;;;17.70
41593;BMP180;28026;48.562;14.440;2024-03-23T02:26:39;93073.00;;;17.70
41593;BMP180;28026;48.562;14.440;2024-03-23T02:29:09;93073.00;;;17.60
41593;BMP180;28026;48.562;14.440;2024-03-23T02:31:40;93074.00;;;17.50
41593;BMP180;28026;48.562;14.440;2024-03-23T02:34:11;93068.00;;;17.50
41593;BMP180;28026;48.562;14.440;2024-03-23T02:36:42;93065.00;;;17.40
41593;BMP180;28026;48.562;14.440;2024-03-23T02:39:13;93062.00;;;17.40
41593;BMP180;28026;48.562;14.440;2024-03-23T02:41:44;93068.00;;;17.30
41593;BMP180;28026;48.562;14.440;2024-03-23T02:44:14;93063.00;;;17.40
41593;BMP180;28026;48.562;14.440;2024-03-23T02:46:45;93064.00;;;17.40
41593;BMP180;28026;48.562;14.440;2024-03-23T02:49:16;93070.00;;;17.40
41593;BMP180;28026;48.562;14.440;2024-03-23T02:51:47;93064.00;;;17.40
41593;BMP180;28026;48.562;14.440;2024-03-23T02:54:19;93053.00;;;17.50
41593;BMP180;28026;48.562;14.440;2024-03-23T02:56:49;93058.00;;;17.50
41593;BMP180;28026;48.562;14.440;2024-03-23T02:59:20;93057.00;;;17.60
41593;BMP180;28026;48.562;14.440;2024-03-23T03:01:51;93056.00;;;17.60
41593;BMP180;28026;48.562;14.440;2024-03-23T03:04:22;93048.00;;;17.60
41593;BMP180;28026;48.562;14.440;2024-03-23T03:06:53;93042.00;;;17.50
41593;BMP180;28026;48.562;14.440;2024-03-23T03:09:24;93046.00;;;17.50
41593;BMP180;28026;48.562;14.440;2024-03-23T03:11:55;93040.00;;;17.40
41593;BMP180;28026;48.562;14.440;2024-03-23T03:14:26;93023.00;;;17.30
41593;BMP180;28026;48.562;14.440;2024-03-23T03:16:56;93026.00;;;17.30
41593;BMP180;28026;48.562;14.440;2024-03-23T03:19:27;93020.00;;;17.20
41593;BMP180;28026;48.562;14.440;2024-03-23T03:21:58;93025.00;;;17.20
41593;BMP180;28026;48.562;14.440;2024-03-23T03:24:29;93023.00;;;17.20
41593;BMP180;28026;48.562;14.440;2024-03-23T03:27:00;93015.00;;;17.20
41593;BMP180;28026;48.562;14.440;2024-03-23T03:29:31;93013.00;;;17.20
41593;BMP180;28026;48.562;14.440;2024-03-23T03:32:06;93004.00;;;17.20
41593;BMP180;28026;48.562;14.440;2024-03-23T03:34:37;92993.00;;;17.10
41593;BMP180;28026;48.562;14.440;2024-03-23T03:37:08;93003.00;;;17.10
41593;BMP180;28026;48.562;14.440;2024-03-23T03:39:38;92986.00;;;17.00
41593;BMP180;28026;48.562;14.440;2024-03-23T03:42:09;93005.00;;;17.00
41593;BMP180;28026;48.562;14.440;2024-03-23T03:44:40;93010.00;;;17.00
41593;BMP180;28026;48.562;14.440;2024-03-23T03:47:11;93009.00;;;17.00
41593;BMP180;28026;48.562;14.440;2024-03-23T03:49:42;93010.00;;;16.90
41593;BMP180;28026;48.562;14.440;2024-03-23T03:52:12;93013.00;;;16.90
41593;BMP180;28026;48.562;14.440;2024-03-23T03:54:43;93005.00;;;16.80
41593;BMP180;28026;48.562;14.440;2024-03-23T03:57:14;93014.00;;;16.80
41593;BMP180;28026;48.562;14.440;2024-03-23T03:59:45;93001.00;;;16.70
41593;BMP180;28026;48.562;14.440;2024-03-23T04:02:16;93003.00;;;16.70
41593;BMP180;28026;48.562;14.440;2024-03-23T04:04:47;92989.00;;;16.70
41593;BMP180;28026;48.562;14.440;2024-03-23T04:07:18;92992.00;;;16.70
41593;BMP180;28026;48.562;14.440;2024-03-23T04:09:49;92995.00;;;16.60
41593;BMP180;28026;48.562;14.440;2024-03-23T04:12:20;92990.00;;;16.50
41593;BMP180;28026;48.562;14.440;2024-03-23T04:14:51;92991.00;;;16.50
41593;BMP180;28026;48.562;14.440;2024-03-23T04:17:21;92986.00;;;16.50
41593;BMP180;28026;48.562;14.440;2024-03-23T04:19:52;92982.00;;;16.40
41593;BMP180;28026;48.562;14.440;2024-03-23T04:22:24;92979.00;;;16.40
41593;BMP180;28026;48.562;14.440;2024-03-23T04:24:56;92967.00;;;16.50
41593;BMP180;28026;48.562;14.440;2024-03-23T04:27:27;92977.00;;;16.50
41593;BMP180;28026;48.562;14.440;2024-03-23T04:29:58;92964.00;;;16.50
41593;BMP180;28026;48.562;14.440;2024-03-23T04:32:31;92973.00;;;16.50
41593;BMP180;28026;48.562;14.440;2024-03-23T04:35:02;92968.00;;;16.50
41593;BMP180;28026;48.562;14.440;2024-03-23T04:37:42;92954.00;;;16.40
41593;BMP180;28026;48.562;14.440;2024-03-23T04:40:13;92960.00;;;16.40
41593;BMP180;28026;48.562;14.440;2024-03-23T04:42:44;92956.00;;;16.40
41593;BMP180;28026;48.562;14.440;2024-03-23T04:45:15;92951.00;;;16.40
41593;BMP180;28026;48.562;14.440;2024-03-23T04:47:46;92953.00;;;16.40
41593;BMP180;28026;48.562;14.440;2024-03-23T04:50:17;92955.00;;;16.30
41593;BMP180;28026;48.562;14.440;2024-03-23T04:52:48;92955.00;;;16.40
41593;BMP180;28026;48.562;14.440;2024-03-23T04:55:19;92957.00;;;16.40
41593;BMP180;28026;48.562;14.440;2024-03-23T04:57:52;92954.00;;;16.40
41593;BMP180;28026;48.562;14.440;2024-03-23T05:00:23;92944.00;;;16.40
41593;BMP180;28026;48.562;14.440;2024-03-23T05:02:55;92939.00;;;16.40
41593;BMP180;28026;48.562;14.440;2024-03-23T05:05:26;92936.00;;;16.50
41593;BMP180;28026;48.562;14.440;2024-03-23T05:07:57;92933.00;;;16.50
41593;BMP180;28026;48.562;14.440;2024-03-23T05:10:27;92925.00;;;16.50
41593;BMP180;28026;48.562;14.440;2024-03-23T05:12:59;92940.00;;;16.50
41593;BMP180;28026;48.562;14.440;2024-03-23T05:15:30;92934.00;;;16.60
41593;BMP180;28026;48.562;14.440;2024-03-23T05:18:01;92925.00;;;16.60
41593;BMP180;28026;48.562;14.440;2024-03-23T05:20:32;92927.00;;;16.60
41593;BMP180;28026;48.562;14.440;2024-03-23T05:23:03;92928.00;;;16.60
41593;BMP180;28026;48.562;14.440;2024-03-23T05:25:34;92927.00;;;16.60
41593;BMP180;28026;48.562;14.440;2024-03-23T05:28:05;92926.00;;;16.70
41593;BMP180;28026;48.562;14.440;2024-03-23T05:30:37;92923.00;;;16.70
41593;BMP180;28026;48.562;14.440;2024-03-23T05:33:10;92914.00;;;16.70
41593;BMP180;28026;48.562;14.440;2024-03-23T05:35:41;92913.00;;;16.70
41593;BMP180;28026;48.562;14.440;2024-03-23T05:38:11;92912.00;;;16.80
41593;BMP180;28026;48.562;14.440;2024-03-23T05:40:53;92926.00;;;16.80
41593;BMP180;28026;48.562;14.440;2024-03-23T05:43:25;92918.00;;;16.80
41593;BMP180;28026;48.562;14.440;2024-03-23T05:45:58;92920.00;;;16.90
41593;BMP180;28026;48.562;14.440;2024-03-23T05:48:30;92909.00;;;16.90
41593;BMP180;28026;48.562;14.440;2024-03-23T05:51:02;92907.00;;;16.90
41593;BMP180;28026;48.562;14.440;2024-03-23T05:53:34;92909.00;;;16.90
41593;BMP180;28026;48.562;14.440;2024-03-23T05:56:06;92906.00;;;16.90
41593;BMP180;28026;48.562;14.440;2024-03-23T05:58:37;92910.00;;;16.90
41593;BMP180;28026;48.562;14.440;2024-03-23T06:01:08;92910.00;;;17.00
41593;BMP180;28026;48.562;14.440;2024-03-23T06:03:40;92916.00;;;17.00
41593;BMP180;28026;48.562;14.440;2024-03-23T06:06:11;92912.00;;;17.10
41593;BMP180;28026;48.562;14.440;2024-03-23T06:08:43;92909.00;;;17.10
41593;BMP180;28026;48.562;14.440;2024-03-23T06:11:14;92903.00;;;17.20
41593;BMP180;28026;48.562;14.440;2024-03-23T06:13:44;92901.00;;;17.20
41593;BMP180;28026;48.562;14.440;2024-03-23T06:16:15;92897.00;;;17.30
41593;BMP180;28026;48.562;14.440;2024-03-23T06:18:46;92896.00;;;17.30
41593;BMP180;28026;48.562;14.440;2024-03-23T06:21:17;92891.00;;;17.40
41593;BMP180;28026;48.562;14.440;2024-03-23T06:23:51;92877.00;;;17.40
41593;BMP180;28026;48.562;14.440;2024-03-23T06:26:23;92866.00;;;17.40
41593;BMP180;28026;48.562;14.440;2024-03-23T06:28:53;92855.00;;;17.50
41593;BMP180;28026;48.562;14.440;2024-03-23T06:31:24;92874.00;;;17.50
41593;BMP180;28026;48.562;14.440;2024-03-23T06:33:55;92877.00;;;17.60
41593;BMP180;28026;48.562;14.440;2024-03-23T06:36:26;92874.00;;;17.50
41593;BMP180;28026;48.562;14.440;2024-03-23T06:38:57;92870.00;;;17.50
41593;BMP180;28026;48.562;14.440;2024-03-23T06:41:28;92862.00;;;17.50
41593;BMP180;28026;48.562;14.440;2024-03-23T06:43:59;92869.00;;;17.50
41593;BMP180;28026;48.562;14.440;2024-03-23T06:46:30;92858.00;;;17.40
41593;BMP180;28026;48.562;14.440;2024-03-23T06:49:01;92843.00;;;17.50
41593;BMP180;28026;48.562;14.440;2024-03-23T06:51:32;92836.00;;;17.70
41593;BMP180;28026;48.562;14.440;2024-03-23T06:54:03;92829.00;;;18.00
41593;BMP180;28026;48.562;14.440;2024-03-23T06:56:35;92839.00;;;18.20
41593;BMP180;28026;48.562;14.440;2024-03-23T06:59:06;92846.00;;;18.40
41593;BMP180;28026;48.562;14.440;2024-03-23T07:01:37;92833.00;;;18.60
41593;BMP180;28026;48.562;14.440;2024-03-23T07:04:08;92843.00;;;18.70
41593;BMP180;28026;48.562;14.440;2024-03-23T07:06:43;92833.00;;;18.70
41593;BMP180;28026;48.562;14.440;2024-03-23T07:09:15;92832.00;;;18.80
41593;BMP180;28026;48.562;14.440;2024-03-23T07:11:45;92835.00;;;18.90
41593;BMP180;28026;48.562;14.440;2024-03-23T07:14:16;92825.00;;;19.00
41593;BMP180;28026;48.562;14.440;2024-03-23T07:16:47;92823.00;;;19.00
41593;BMP180;28026;48.562;14.440;2024-03-23T07:19:19;92812.00;;;19.20
41593;BMP180;28026;48.562;14.440;2024-03-23T07:21:50;92814.00;;;19.40
41593;BMP180;28026;48.562;14.440;2024-03-23T07:24:21;92816.00;;;19.70
41593;BMP180;28026;48.562;14.440;2024-03-23T07:26:52;92810.00;;;19.90
41593;BMP180;28026;48.562;14.440;2024-03-23T07:29:24;92806.00;;;20.10
41593;BMP180;28026;48.562;14.440;2024-03-23T07:31:55;92804.00;;;20.30
41593;BMP180;28026;48.562;14.440;2024-03-23T07:34:26;92788.00;;;20.50
41593;BMP180;28026;48.562;14.440;2024-03-23T07:36:57;92798.00;;;20.70
41593;BMP180;28026;48.562;14.440;2024-03-23T07:39:28;92810.00;;;20.80
41593;BMP180;28026;48.562;14.440;2024-03-23T07:41:59;92794.00;;;20.90
41593;BMP180;28026;48.562;14.440;2024-03-23T07:44:29;92807.00;;;21.10
41593;BMP180;28026;48.562;14.440;2024-03-23T07:47:00;92803.00;;;21.20
41593;BMP180;28026;48.562;14.440;2024-03-23T07:49:31;92809.00;;;21.30
41593;BMP180;28026;48.562;14.440;2024-03-23T07:52:02;92800.00;;;21.50
41593;BMP180;28026;48.562;14.440;2024-03-23T07:54:33;92800.00;;;21.70
41593;BMP180;28026;48.562;14.440;2024-03-23T07:57:04;92786.00;;;21.80
41593;BMP180;28026;48.562;14.440;2024-03-23T07:59:36;92778.00;;;21.80
41593;BMP180;28026;48.562;14.440;2024-03-23T08:02:07;92770.00;;;21.90
41593;BMP180;28026;48.562;14.440;2024-03-23T08:04:38;92764.00;;;21.90
41593;BMP180;28026;48.562;14.440;2024-03-23T08:07:09;92771.00;;;22.00
41593;BMP180;28026;48.562;14.440;2024-03-23T08:09:40;92768.00;;;22.00
41593;BMP180;28026;48.562;14.440;2024-03-23T08:12:10;92749.00;;;22.10
41593;BMP180;28026;48.562;14.440;2024-03-23T08:14:41;92753.00;;;22.30
41593;BMP180;28026;48.562;14.440;2024-03-23T08:17:12;92749.00;;;22.40
41593;BMP180;28026;48.562;14.440;2024-03-23T08:19:43;92746.00;;;22.50
41593;BMP180;28026;48.562;14.440;2024-03-23T08:22:14;92731.00;;;22.40
41593;BMP180;28026;48.562;14.440;2024-03-23T08:24:45;92732.00;;;22.50
41593;BMP180;28026;48.562;14.440;2024-03-23T08:27:15;92713.00;;;22.40
41593;BMP180;28026;48.562;14.440;2024-03-23T08:29:46;92715.00;;;22.40
41593;BMP180;28026;48.562;14.440;2024-03-23T08:32:17;92714.00;;;22.50
41593;BMP180;28026;48.562;14.440;2024-03-23T08:34:48;92701.00;;;22.40
41593;BMP180;28026;48.562;14.440;2024-03-23T08:37:19;92706.00;;;22.50
41593;BMP180;28026;48.562;14.440;2024-03-23T08:39:51;92701.00;;;22.60
41593;BMP180;28026;48.562;14.440;2024-03-23T08:42:22;92702.00;;;22.50
41593;BMP180;28026;48.562;14.440;2024-03-23T08:44:52;92695.00;;;22.50
41593;BMP180;28026;48.562;14.440;2024-03-23T08:47:23;92694.00;;;22.60
41593;BMP180;28026;48.562;14.440;2024-03-23T08:49:54;92689.00;;;22.50
41593;BMP180;28026;48.562;14.440;2024-03-23T08:52:25;92687.00;;;22.40
41593;BMP180;28026;48.562;14.440;2024-03-23T08:54:59;92678.00;;;22.40
41593;BMP180;28026;48.562;14.440;2024-03-23T08:57:29;92686.00;;;22.30
41593;BMP180;28026;48.562;14.440;2024-03-23T09:00:00;92672.00;;;22.30
41593;BMP180;28026;48.562;14.440;2024-03-23T09:02:31;92677.00;;;22.20
41593;BMP180;28026;48.562;14.440;2024-03-23T09:05:02;92670.00;;;22.20
41593;BMP180;28026;48.562;14.440;2024-03-23T09:07:34;92670.00;;;22.30
41593;BMP180;28026;48.562;14.440;2024-03-23T09:10:06;92670.00;;;22.40
41593;BMP180;28026;48.562;14.440;2024-03-23T09:12:38;92666.00;;;22.30
41593;BMP180;28026;48.562;14.440;2024-03-23T09:15:09;92658.00;;;22.30
41593;BMP180;28026;48.562;14.440;2024-03-23T09:17:39;92651.00;;;22.30
41593;BMP180;28026;48.562;14.440;2024-03-23T09:20:10;92654.00;;;22.30
41593;BMP180;28026;48.562;14.440;2024-03-23T09:22:41;92658.00;;;22.30
41593;BMP180;28026;48.562;14.440;2024-03-23T09:25:12;92663.00;;;22.20
41593;BMP180;28026;48.562;14.440;2024-03-23T09:27:46;92663.00;;;22.20
41593;BMP180;28026;48.562;14.440;2024-03-23T09:30:17;92649.00;;;22.10
41593;BMP180;28026;48.562;14.440;2024-03-23T09:32:49;92662.00;;;22.20
41593;BMP180;28026;48.562;14.440;2024-03-23T09:35:20;92652.00;;;22.20
41593;BMP180;28026;48.562;14.440;2024-03-23T09:37:51;92661.00;;;22.10
41593;BMP180;28026;48.562;14.440;2024-03-23T09:40:21;92654.00;;;21.90
41593;BMP180;28026;48.562;14.440;2024-03-23T09:42:53;92656.00;;;21.70
41593;BMP180;28026;48.562;14.440;2024-03-23T09:45:28;92664.00;;;21.70
41593;BMP180;28026;48.562;14.440;2024-03-23T09:47:59;92661.00;;;21.60
41593;BMP180;28026;48.562;14.440;2024-03-23T09:50:30;92671.00;;;21.60
41593;BMP180;28026;48.562;14.440;2024-03-23T09:53:01;92668.00;;;21.40
41593;BMP180;28026;48.562;14.440;2024-03-23T09:55:32;92670.00;;;21.20
41593;BMP180;28026;48.562;14.440;2024-03-23T09:58:04;92674.00;;;21.10
41593;BMP180;28026;48.562;14.440;2024-03-23T10:00:38;92686.00;;;20.80
41593;BMP180;28026;48.562;14.440;2024-03-23T10:03:09;92666.00;;;20.80
41593;BMP180;28026;48.562;14.440;2024-03-23T10:05:41;92680.00;;;20.70
41593;BMP180;28026;48.562;14.440;2024-03-23T10:10:48;92698.00;;;20.70
41593;BMP180;28026;48.562;14.440;2024-03-23T10:13:28;92693.00;;;20.60
41593;BMP180;28026;48.562;14.440;2024-03-23T10:16:02;92686.00;;;20.50
41593;BMP180;28026;48.562;14.440;2024-03-23T10:18:37;92704.00;;;20.50
41593;BMP180;28026;48.562;14.440;2024-03-23T10:21:10;92699.00;;;20.40
41593;BMP180;28026;48.562;14.440;2024-03-23T10:23:42;92736.00;;;20.20
41593;BMP180;28026;48.562;14.440;2024-03-23T10:26:22;92737.00;;;20.00
41593;BMP180;28026;48.562;14.440;2024-03-23T10:28:58;92754.00;;;19.90
41593;BMP180;28026;48.562;14.440;2024-03-23T10:31:38;92779.00;;;19.60
41593;BMP180;28026;48.562;14.440;2024-03-23T10:34:12;92784.00;;;19.30
41593;BMP180;28026;48.562;14.440;2024-03-23T10:36:43;92804.00;;;19.10
41593;BMP180;28026;48.562;14.440;2024-03-23T10:39:15;92811.00;;;18.80
41593;BMP180;28026;48.562;14.440;2024-03-23T10:41:50;92827.00;;;18.50
41593;BMP180;28026;48.562;14.440;2024-03-23T10:44:23;92817.00;;;18.30
41593;BMP180;28026;48.562;14.440;2024-03-23T10:47:06;92859.00;;;18.10
41593;BMP180;28026;48.562;14.440;2024-03-23T10:49:37;92816.00;;;18.00
41593;BMP180;28026;48.562;14.440;2024-03-23T10:52:08;92857.00;;;17.90
41593;BMP180;28026;48.562;14.440;2024-03-23T10:54:41;92855.00;;;17.70
41593;BMP180;28026;48.562;14.440;2024-03-23T10:57:18;92864.00;;;17.60
41593;BMP180;28026;48.562;14.440;2024-03-23T10:59:53;92862.00;;;17.50
41593;BMP180;28026;48.562;14.440;2024-03-23T11:02:25;92861.00;;;17.40
41593;BMP180;28026;48.562;14.440;2024-03-23T11:04:57;92875.00;;;17.30
41593;BMP180;28026;48.562;14.440;2024-03-23T11:07:32;92875.00;;;17.30
41593;BMP180;28026;48.562;14.440;2024-03-23T11:13:21;92863.00;;;17.10
41593;BMP180;28026;48.562;14.440;2024-03-23T11:15:53;92876.00;;;16.90
41593;BMP180;28026;48.562;14.440;2024-03-23T11:18:24;92881.00;;;16.90
41593;BMP180;28026;48.562;14.440;2024-03-23T11:20:55;92873.00;;;16.80
41593;BMP180;28026;48.562;14.440;2024-03-23T11:23:29;92866.00;;;16.80
41593;BMP180;28026;48.562;14.440;2024-03-23T11:26:00;92868.00;;;16.70
41593;BMP180;28026;48.562;14.440;2024-03-23T11:28:31;92864.00;;;16.70
41593;BMP180;28026;48.562;14.440;2024-03-23T11:31:09;92863.00;;;16.70
41593;BMP180;28026;48.562;14.440;2024-03-23T11:33:41;92852.00;;;16.70
41593;BMP180;28026;48.562;14.440;2024-03-23T11:36:19;92853.00;;;16.80
41593;BMP180;28026;48.562;14.440;2024-03-23T11:38:49;92852.00;;;16.80
41593;BMP180;28026;48.562;14.440;2024-03-23T11:41:20;92840.00;;;16.90
41593;BMP180;28026;48.562;14.440;2024-03-23T11:43:51;92850.00;;;17.00
41593;BMP180;28026;48.562;14.440;2024-03-23T11:46:24;92841.00;;;16.90
41593;BMP180;28026;48.562;14.440;2024-03-23T11:48:54;92850.00;;;16.90
41593;BMP180;28026;48.562;14.440;2024-03-23T11:51:25;92846.00;;;16.80
41593;BMP180;28026;48.562;14.440;2024-03-23T11:54:07;92845.00;;;16.70
41593;BMP180;28026;48.562;14.440;2024-03-23T11:56:39;92792.00;;;16.60
41593;BMP180;28026;48.562;14.440;2024-03-23T11:59:10;92836.00;;;16.40
41593;BMP180;28026;48.562;14.440;2024-03-23T12:01:41;92835.00;;;16.20
41593;BMP180;28026;48.562;14.440;2024-03-23T12:04:25;92823.00;;;16.10
41593;BMP180;28026;48.562;14.440;2024-03-23T12:07:16;92827.00;;;16.00
41593;BMP180;28026;48.562;14.440;2024-03-23T12:10:04;92815.00;;;16.00
41593;BMP180;28026;48.562;14.440;2024-03-23T12:12:39;92819.00;;;15.90
41593;BMP180;28026;48.562;14.440;2024-03-23T12:15:10;92804.00;;;15.90
41593;BMP180;28026;48.562;14.440;2024-03-23T12:17:43;92786.00;;;15.80
41593;BMP180;28026;48.562;14.440;2024-03-23T12:20:14;92769.00;;;15.80
41593;BMP180;28026;48.562;14.440;2024-03-23T12:22:44;92779.00;;;15.70
41593;BMP180;28026;48.562;14.440;2024-03-23T12:25:17;92788.00;;;15.70
41593;BMP180;28026;48.562;14.440;2024-03-23T12:27:47;92784.00;;;15.80
41593;BMP180;28026;48.562;14.440;2024-03-23T12:30:18;92781.00;;;15.80
41593;BMP180;28026;48.562;14.440;2024-03-23T12:32:50;92775.00;;;15.80
41593;BMP180;28026;48.562;14.440;2024-03-23T12:35:20;92773.00;;;15.80
41593;BMP180;28026;48.562;14.440;2024-03-23T12:37:51;92776.00;;;15.80
41593;BMP180;28026;48.562;14.440;2024-03-23T12:40:22;92793.00;;;15.80
41593;BMP180;28026;48.562;14.440;2024-03-23T12:42:54;92785.00;;;15.80
41593;BMP180;28026;48.562;14.440;2024-03-23T12:45:26;92802.00;;;15.80
41593;BMP180;28026;48.562;14.440;2024-03-23T12:47:57;92815.00;;;15.70
41593;BMP180;28026;48.562;14.440;2024-03-23T12:50:28;92815.00;;;15.60
41593;BMP180;28026;48.562;14.440;2024-03-23T12:52:59;92823.00;;;15.60
41593;BMP180;28026;48.562;14.440;2024-03-23T12:55:30;92825.00;;;15.60
41593;BMP180;28026;48.562;14.440;2024-03-23T12:58:01;92813.00;;;15.60
41593;BMP180;28026;48.562;14.440;2024-03-23T13:00:32;92837.00;;;15.60
41593;BMP180;28026;48.562;14.440;2024-03-23T13:03:03;92833.00;;;15.60
41593;BMP180;28026;48.562;14.440;2024-03-23T13:05:35;92831.00;;;15.60
41593;BMP180;28026;48.562;14.440;2024-03-23T13:08:06;92833.00;;;15.50
41593;BMP180;28026;48.562;14.440;2024-03-23T13:10:38;92837.00;;;15.50
41593;BMP180;28026;48.562;14.440;2024-03-23T13:13:11;92847.00;;;15.50
41593;BMP180;28026;48.562;14.440;2024-03-23T13:15:42;92855.00;;;15.50
41593;BMP180;28026;48.562;14.440;2024-03-23T13:18:13;92861.00;;;15.40
41593;BMP180;28026;48.562;14.440;2024-03-23T13:20:44;92868.00;;;15.40
41593;BMP180;28026;48.562;14.440;2024-03-23T13:23:15;92870.00;;;15.30
41593;BMP180;28026;48.562;14.440;2024-03-23T13:25:52;92907.00;;;15.20
41593;BMP180;28026;48.562;14.440;2024-03-23T13:28:24;92919.00;;;15.00
41593;BMP180;28026;48.562;14.440;2024-03-23T13:30:56;92903.00;;;14.90
41593;BMP180;28026;48.562;14.440;2024-03-23T13:33:34;92934.00;;;14.70
41593;BMP180;28026;48.562;14.440;2024-03-23T13:36:05;92917.00;;;14.60
41593;BMP180;28026;48.562;14.440;2024-03-23T13:38:36;92942.00;;;14.40
41593;BMP180;28026;48.562;14.440;2024-03-23T13:41:07;92941.00;;;14.30
41593;BMP180;28026;48.562;14.440;2024-03-23T13:43:42;92943.00;;;14.20
41593;BMP180;28026;48.562;14.440;2024-03-23T13:46:13;92938.00;;;14.10
41593;BMP180;28026;48.562;14.440;2024-03-23T13:48:44;92934.00;;;14.00
41593;BMP180;28026;48.562;14.440;2024-03-23T13:51:23;92914.00;;;14.00
41593;BMP180;28026;48.562;14.440;2024-03-23T13:53:57;92916.00;;;13.90
41593;BMP180;28026;48.562;14.440;2024-03-23T13:56:31;92902.00;;;13.90
41593;BMP180;28026;48.562;14.440;2024-03-23T13:59:02;92910.00;;;14.00
41593;BMP180;28026;48.562;14.440;2024-03-23T14:01:33;92905.00;;;14.00
41593;BMP180;28026;48.562;14.440;2024-03-23T14:04:04;92919.00;;;14.00
41593;BMP180;28026;48.562;14.440;2024-03-23T14:06:35;92932.00;;;14.00
41593;BMP180;28026;48.562;14.440;2024-03-23T14:09:06;92924.00;;;14.10
41593;BMP180;28026;48.562;14.440;2024-03-23T14:11:39;92925.00;;;14.10
41593;BMP180;28026;48.562;14.440;2024-03-23T14:14:12;92939.00;;;14.20
41593;BMP180;28026;48.562;14.440;2024-03-23T14:16:43;92920.00;;;14.20
41593;BMP180;28026;48.562;14.440;2024-03-23T14:19:14;92933.00;;;14.20
41593;BMP180;28026;48.562;14.440;2024-03-23T14:21:45;92948.00;;;14.30
41593;BMP180;28026;48.562;14.440;2024-03-23T14:24:16;92945.00;;;14.30
41593;BMP180;28026;48.562;14.440;2024-03-23T14:26:47;92918.00;;;14.20
41593;BMP180;28026;48.562;14.440;2024-03-23T14:29:18;92930.00;;;14.30
41593;BMP180;28026;48.562;14.440;2024-03-23T14:31:49;92934.00;;;14.20
41593;BMP180;28026;48.562;14.440;2024-03-23T14:34:20;92929.00;;;14.20
41593;BMP180;28026;48.562;14.440;2024-03-23T14:36:51;92929.00;;;14.20
41593;BMP180;28026;48.562;14.440;2024-03-23T14:39:24;92931.00;;;14.20
41593;BMP180;28026;48.562;14.440;2024-03-23T14:41:55;92941.00;;;14.30
41593;BMP180;28026;48.562;14.440;2024-03-23T14:44:28;92922.00;;;14.30
41593;BMP180;28026;48.562;14.440;2024-03-23T14:46:59;92922.00;;;14.20
41593;BMP180;28026;48.562;14.440;2024-03-23T14:49:30;92933.00;;;14.20
41593;BMP180;28026;48.562;14.440;2024-03-23T14:52:01;92946.00;;;14.20
41593;BMP180;28026;48.562;14.440;2024-03-23T14:54:33;92943.00;;;14.10
41593;BMP180;28026;48.562;14.440;2024-03-23T14:57:05;92936.00;;;14.10
41593;BMP180;28026;48.562;14.440;2024-03-23T14:59:38;92918.00;;;14.10
41593;BMP180;28026;48.562;14.440;2024-03-23T15:02:10;92923.00;;;14.00
41593;BMP180;28026;48.562;14.440;2024-03-23T15:04:43;92919.00;;;14.00
41593;BMP180;28026;48.562;14.440;2024-03-23T15:07:14;92903.00;;;13.90
41593;BMP180;28026;48.562;14.440;2024-03-23T15:09:45;92898.00;;;14.00
41593;BMP180;28026;48.562;14.440;2024-03-23T15:12:15;92926.00;;;13.90
41593;BMP180;28026;48.562;14.440;2024-03-23T15:14:46;92933.00;;;13.90
41593;BMP180;28026;48.562;14.440;2024-03-23T15:17:18;92939.00;;;13.90
41593;BMP180;28026;48.562;14.440;2024-03-23T15:19:49;92941.00;;;13.90
41593;BMP180;28026;48.562;14.440;2024-03-23T15:22:20;92958.00;;;13.90